sensor_id;sensor_type;location;lat;lon;timestamp;P1;durP1;ratioP1;P2;durP2;ratioP2
13959;SDS011;7052;51.050;3.716;2023-09-08T00:02:00;17.73;;;15.90;;
13959;SDS011;7052;51.050;3.716;2023-09-08T00:04:27;29.85;;;26.98;;
13959;SDS011;7052;51.050;3.716;2023-09-08T00:06:55;27.30;;;24.60;;
13959;SDS011;7052;51.050;3.716;2023-09-08T00:09:22;22.20;;;19.88;;
13959;SDS011;7052;51.050;3.716;2023-09-08T00:11:49;21.95;;;19.85;;
13959;SDS011;7052;51.050;3.716;2023-09-08T00:14:17;18.25;;;16.35;;
13959;SDS011;7052;51.050;3.716;2023-09-08T00:16:44;16.33;;;14.63;;
13959;SDS011;7052;51.050;3.716;2023-09-08T00:19:11;14.65;;;13.15;;
13959;SDS011;7052;51.050;3.716;2023-09-08T00:21:38;16.13;;;13.88;;
13959;SDS011;7052;51.050;3.716;2023-09-08T00:24:07;14.27;;;12.77;;
13959;SDS011;7052;51.050;3.716;2023-09-08T00:26:34;16.80;;;12.75;;
13959;SDS011;7052;51.050;3.716;2023-09-08T00:29:01;17.50;;;14.73;;
13959;SDS011;7052;51.050;3.716;2023-09-08T00:31:28;19.95;;;17.85;;
13959;SDS011;7052;51.050;3.716;2023-09-08T00:33:54;23.02;;;20.58;;
13959;SDS011;7052;51.050;3.716;2023-09-08T00:36:21;25.10;;;19.00;;
13959;SDS011;7052;51.050;3.716;2023-09-08T00:38:48;20.13;;;17.98;;
13959;SDS011;7052;51.050;3.716;2023-09-08T00:41:17;18.50;;;15.25;;
13959;SDS011;7052;51.050;3.716;2023-09-08T00:43:44;16.65;;;14.63;;
13959;SDS011;7052;51.050;3.716;2023-09-08T00:46:11;18.45;;;15.77;;
13959;SDS011;7052;51.050;3.716;2023-09-08T00:48:38;17.90;;;15.85;;
13959;SDS011;7052;51.050;3.716;2023-09-08T00:51:05;16.58;;;14.88;;
13959;SDS011;7052;51.050;3.716;2023-09-08T00:53:34;16.70;;;14.93;;
13959;SDS011;7052;51.050;3.716;2023-09-08T00:56:02;24.75;;;18.55;;
13959;SDS011;7052;51.050;3.716;2023-09-08T00:58:32;19.48;;;16.90;;
13959;SDS011;7052;51.050;3.716;2023-09-08T01:00:59;20.58;;;15.82;;
13959;SDS011;7052;51.050;3.716;2023-09-08T01:03:25;17.45;;;15.52;;
13959;SDS011;7052;51.050;3.716;2023-09-08T01:05:52;17.20;;;15.50;;
13959;SDS011;7052;51.050;3.716;2023-09-08T01:08:20;18.17;;;16.27;;
13959;SDS011;7052;51.050;3.716;2023-09-08T01:10:47;17.70;;;15.80;;
13959;SDS011;7052;51.050;3.716;2023-09-08T01:13:14;16.13;;;14.48;;
13959;SDS011;7052;51.050;3.716;2023-09-08T01:15:43;18.48;;;14.60;;
13959;SDS011;7052;51.050;3.716;2023-09-08T01:18:09;18.92;;;14.10;;
13959;SDS011;7052;51.050;3.716;2023-09-08T01:20:41;15.60;;;14.00;;
13959;SDS011;7052;51.050;3.716;2023-09-08T01:23:21;14.93;;;13.38;;
13959;SDS011;7052;51.050;3.716;2023-09-08T01:25:54;14.90;;;13.38;;
13959;SDS011;7052;51.050;3.716;2023-09-08T01:28:25;15.57;;;14.07;;
13959;SDS011;7052;51.050;3.716;2023-09-08T01:30:53;16.88;;;15.02;;
13959;SDS011;7052;51.050;3.716;2023-09-08T01:33:22;15.93;;;14.40;;
13959;SDS011;7052;51.050;3.716;2023-09-08T01:35:49;14.48;;;12.88;;
13959;SDS011;7052;51.050;3.716;2023-09-08T01:38:16;15.15;;;13.63;;
13959;SDS011;7052;51.050;3.716;2023-09-08T01:40:43;15.10;;;13.60;;
13959;SDS011;7052;51.050;3.716;2023-09-08T01:43:11;15.30;;;13.65;;
13959;SDS011;7052;51.050;3.716;2023-09-08T01:45:38;16.70;;;13.30;;
13959;SDS011;7052;51.050;3.716;2023-09-08T01:48:07;14.80;;;12.88;;
13959;SDS011;7052;51.050;3.716;2023-09-08T01:50:34;13.98;;;12.57;;
13959;SDS011;7052;51.050;3.716;2023-09-08T01:53:01;14.27;;;12.82;;
13959;SDS011;7052;51.050;3.716;2023-09-08T01:55:28;14.70;;;13.20;;
13959;SDS011;7052;51.050;3.716;2023-09-08T01:57:55;15.13;;;12.70;;
13959;SDS011;7052;51.050;3.716;2023-09-08T02:00:23;15.57;;;12.98;;
13959;SDS011;7052;51.050;3.716;2023-09-08T02:02:50;14.93;;;12.98;;
13959;SDS011;7052;51.050;3.716;2023-09-08T02:05:17;13.82;;;12.27;;
13959;SDS011;7052;51.050;3.716;2023-09-08T02:07:43;15.93;;;12.18;;
13959;SDS011;7052;51.050;3.716;2023-09-08T02:10:10;14.20;;;12.23;;
13959;SDS011;7052;51.050;3.716;2023-09-08T02:12:37;14.05;;;12.32;;
13959;SDS011;7052;51.050;3.716;2023-09-08T02:15:05;13.48;;;11.68;;
13959;SDS011;7052;51.050;3.716;2023-09-08T02:17:35;14.10;;;11.77;;
13959;SDS011;7052;51.050;3.716;2023-09-08T02:20:02;14.18;;;11.60;;
13959;SDS011;7052;51.050;3.716;2023-09-08T02:22:29;13.40;;;11.68;;
13959;SDS011;7052;51.050;3.716;2023-09-08T02:24:56;12.27;;;10.93;;
13959;SDS011;7052;51.050;3.716;2023-09-08T02:27:23;15.27;;;11.25;;
13959;SDS011;7052;51.050;3.716;2023-09-08T02:29:50;12.25;;;10.95;;
13959;SDS011;7052;51.050;3.716;2023-09-08T02:32:17;13.27;;;10.80;;
13959;SDS011;7052;51.050;3.716;2023-09-08T02:34:45;12.82;;;10.05;;
13959;SDS011;7052;51.050;3.716;2023-09-08T02:37:13;10.90;;;9.68;;
13959;SDS011;7052;51.050;3.716;2023-09-08T02:39:40;11.07;;;9.88;;
13959;SDS011;7052;51.050;3.716;2023-09-08T02:42:08;10.82;;;9.82;;
13959;SDS011;7052;51.050;3.716;2023-09-08T02:44:35;12.50;;;10.18;;
13959;SDS011;7052;51.050;3.716;2023-09-08T02:47:02;10.50;;;9.50;;
13959;SDS011;7052;51.050;3.716;2023-09-08T02:49:31;10.45;;;9.43;;
13959;SDS011;7052;51.050;3.716;2023-09-08T02:51:59;12.15;;;9.82;;
13959;SDS011;7052;51.050;3.716;2023-09-08T02:54:26;10.65;;;9.57;;
13959;SDS011;7052;51.050;3.716;2023-09-08T02:56:54;11.50;;;10.43;;
13959;SDS011;7052;51.050;3.716;2023-09-08T02:59:20;12.05;;;10.70;;
13959;SDS011;7052;51.050;3.716;2023-09-08T03:01:47;11.85;;;10.32;;
13959;SDS011;7052;51.050;3.716;2023-09-08T03:04:14;14.40;;;10.32;;
13959;SDS011;7052;51.050;3.716;2023-09-08T03:06:41;11.55;;;9.57;;
13959;SDS011;7052;51.050;3.716;2023-09-08T03:09:09;11.55;;;10.20;;
13959;SDS011;7052;51.050;3.716;2023-09-08T03:11:37;13.65;;;9.52;;
13959;SDS011;7052;51.050;3.716;2023-09-08T03:14:04;11.27;;;10.10;;
13959;SDS011;7052;51.050;3.716;2023-09-08T03:16:31;11.30;;;10.13;;
13959;SDS011;7052;51.050;3.716;2023-09-08T03:18:58;11.05;;;9.90;;
13959;SDS011;7052;51.050;3.716;2023-09-08T03:21:25;11.65;;;10.15;;
13959;SDS011;7052;51.050;3.716;2023-09-08T03:23:52;12.38;;;10.27;;
13959;SDS011;7052;51.050;3.716;2023-09-08T03:26:20;10.30;;;9.30;;
13959;SDS011;7052;51.050;3.716;2023-09-08T03:28:47;11.00;;;10.00;;
13959;SDS011;7052;51.050;3.716;2023-09-08T03:31:14;13.98;;;10.05;;
13959;SDS011;7052;51.050;3.716;2023-09-08T03:33:41;11.68;;;9.73;;
13959;SDS011;7052;51.050;3.716;2023-09-08T03:36:07;11.43;;;9.73;;
13959;SDS011;7052;51.050;3.716;2023-09-08T03:38:34;10.73;;;9.38;;
13959;SDS011;7052;51.050;3.716;2023-09-08T03:41:03;10.82;;;9.73;;
13959;SDS011;7052;51.050;3.716;2023-09-08T03:43:31;10.02;;;8.98;;
13959;SDS011;7052;51.050;3.716;2023-09-08T03:45:58;12.48;;;9.27;;
13959;SDS011;7052;51.050;3.716;2023-09-08T03:48:25;10.02;;;9.02;;
13959;SDS011;7052;51.050;3.716;2023-09-08T03:50:52;9.70;;;8.80;;
13959;SDS011;7052;51.050;3.716;2023-09-08T03:53:18;9.68;;;8.77;;
13959;SDS011;7052;51.050;3.716;2023-09-08T03:55:45;9.70;;;8.80;;
13959;SDS011;7052;51.050;3.716;2023-09-08T03:58:12;10.45;;;9.10;;
13959;SDS011;7052;51.050;3.716;2023-09-08T04:00:42;10.35;;;9.07;;
13959;SDS011;7052;51.050;3.716;2023-09-08T04:03:09;11.70;;;9.27;;
13959;SDS011;7052;51.050;3.716;2023-09-08T04:05:36;13.65;;;9.38;;
13959;SDS011;7052;51.050;3.716;2023-09-08T04:08:03;15.98;;;10.13;;
13959;SDS011;7052;51.050;3.716;2023-09-08T04:10:30;9.80;;;8.90;;
13959;SDS011;7052;51.050;3.716;2023-09-08T04:12:57;13.63;;;9.27;;
13959;SDS011;7052;51.050;3.716;2023-09-08T04:15:24;12.63;;;9.00;;
13959;SDS011;7052;51.050;3.716;2023-09-08T04:17:52;11.82;;;9.32;;
13959;SDS011;7052;51.050;3.716;2023-09-08T04:20:20;12.55;;;8.95;;
13959;SDS011;7052;51.050;3.716;2023-09-08T04:22:48;12.40;;;9.50;;
13959;SDS011;7052;51.050;3.716;2023-09-08T04:25:15;9.70;;;8.50;;
13959;SDS011;7052;51.050;3.716;2023-09-08T04:27:42;11.93;;;9.52;;
13959;SDS011;7052;51.050;3.716;2023-09-08T04:30:10;11.32;;;8.82;;
13959;SDS011;7052;51.050;3.716;2023-09-08T04:32:38;15.35;;;9.60;;
13959;SDS011;7052;51.050;3.716;2023-09-08T04:35:07;15.05;;;9.90;;
13959;SDS011;7052;51.050;3.716;2023-09-08T04:37:34;10.70;;;9.18;;
13959;SDS011;7052;51.050;3.716;2023-09-08T04:40:01;10.27;;;9.27;;
13959;SDS011;7052;51.050;3.716;2023-09-08T04:42:29;10.43;;;9.15;;
13959;SDS011;7052;51.050;3.716;2023-09-08T04:44:56;9.68;;;8.63;;
13959;SDS011;7052;51.050;3.716;2023-09-08T04:47:23;9.88;;;8.85;;
13959;SDS011;7052;51.050;3.716;2023-09-08T04:49:50;12.43;;;9.63;;
13959;SDS011;7052;51.050;3.716;2023-09-08T04:52:18;11.35;;;9.55;;
13959;SDS011;7052;51.050;3.716;2023-09-08T04:54:45;11.32;;;9.05;;
13959;SDS011;7052;51.050;3.716;2023-09-08T04:57:12;12.18;;;9.07;;
13959;SDS011;7052;51.050;3.716;2023-09-08T04:59:39;11.70;;;9.77;;
13959;SDS011;7052;51.050;3.716;2023-09-08T05:02:06;11.35;;;9.32;;
13959;SDS011;7052;51.050;3.716;2023-09-08T05:04:33;13.77;;;10.27;;
13959;SDS011;7052;51.050;3.716;2023-09-08T05:07:01;13.38;;;9.88;;
13959;SDS011;7052;51.050;3.716;2023-09-08T05:09:29;10.00;;;9.05;;
13959;SDS011;7052;51.050;3.716;2023-09-08T05:11:58;12.35;;;10.27;;
13959;SDS011;7052;51.050;3.716;2023-09-08T05:14:25;12.55;;;9.60;;
13959;SDS011;7052;51.050;3.716;2023-09-08T05:16:52;11.73;;;9.90;;
13959;SDS011;7052;51.050;3.716;2023-09-08T05:19:21;10.38;;;9.32;;
13959;SDS011;7052;51.050;3.716;2023-09-08T05:21:49;19.15;;;10.18;;
13959;SDS011;7052;51.050;3.716;2023-09-08T05:24:17;13.60;;;10.50;;
13959;SDS011;7052;51.050;3.716;2023-09-08T05:26:45;14.45;;;9.60;;
13959;SDS011;7052;51.050;3.716;2023-09-08T05:29:12;12.02;;;10.00;;
13959;SDS011;7052;51.050;3.716;2023-09-08T05:31:39;16.73;;;10.10;;
13959;SDS011;7052;51.050;3.716;2023-09-08T05:34:06;16.65;;;10.00;;
13959;SDS011;7052;51.050;3.716;2023-09-08T05:36:33;16.33;;;10.65;;
13959;SDS011;7052;51.050;3.716;2023-09-08T05:39:02;16.23;;;10.48;;
13959;SDS011;7052;51.050;3.716;2023-09-08T05:41:29;13.15;;;10.07;;
13959;SDS011;7052;51.050;3.716;2023-09-08T05:43:58;15.90;;;12.02;;
13959;SDS011;7052;51.050;3.716;2023-09-08T05:46:25;16.05;;;10.02;;
13959;SDS011;7052;51.050;3.716;2023-09-08T05:48:52;12.65;;;9.65;;
13959;SDS011;7052;51.050;3.716;2023-09-08T05:51:19;12.95;;;10.55;;
13959;SDS011;7052;51.050;3.716;2023-09-08T05:53:45;18.60;;;11.57;;
13959;SDS011;7052;51.050;3.716;2023-09-08T05:56:12;15.00;;;10.00;;
13959;SDS011;7052;51.050;3.716;2023-09-08T05:58:39;14.18;;;9.88;;
13959;SDS011;7052;51.050;3.716;2023-09-08T06:01:07;13.23;;;10.40;;
13959;SDS011;7052;51.050;3.716;2023-09-08T06:03:34;12.77;;;10.35;;
13959;SDS011;7052;51.050;3.716;2023-09-08T06:06:02;13.60;;;10.00;;
13959;SDS011;7052;51.050;3.716;2023-09-08T06:08:29;16.60;;;10.80;;
13959;SDS011;7052;51.050;3.716;2023-09-08T06:10:56;13.57;;;10.15;;
13959;SDS011;7052;51.050;3.716;2023-09-08T06:13:23;18.27;;;10.57;;
13959;SDS011;7052;51.050;3.716;2023-09-08T06:15:49;12.48;;;9.80;;
13959;SDS011;7052;51.050;3.716;2023-09-08T06:18:18;11.32;;;10.13;;
13959;SDS011;7052;51.050;3.716;2023-09-08T06:20:45;12.07;;;10.70;;
13959;SDS011;7052;51.050;3.716;2023-09-08T06:23:12;13.57;;;10.52;;
13959;SDS011;7052;51.050;3.716;2023-09-08T06:25:39;11.45;;;10.27;;
13959;SDS011;7052;51.050;3.716;2023-09-08T06:28:06;15.43;;;10.18;;
13959;SDS011;7052;51.050;3.716;2023-09-08T06:30:35;10.70;;;9.48;;
13959;SDS011;7052;51.050;3.716;2023-09-08T06:33:02;13.30;;;9.70;;
13959;SDS011;7052;51.050;3.716;2023-09-08T06:35:31;12.18;;;9.38;;
13959;SDS011;7052;51.050;3.716;2023-09-08T06:37:58;11.40;;;8.73;;
13959;SDS011;7052;51.050;3.716;2023-09-08T06:40:25;11.93;;;9.32;;
13959;SDS011;7052;51.050;3.716;2023-09-08T06:42:55;14.55;;;9.77;;
13959;SDS011;7052;51.050;3.716;2023-09-08T06:45:22;16.48;;;9.13;;
13959;SDS011;7052;51.050;3.716;2023-09-08T06:47:49;11.20;;;8.55;;
13959;SDS011;7052;51.050;3.716;2023-09-08T06:50:19;11.32;;;8.85;;
13959;SDS011;7052;51.050;3.716;2023-09-08T06:52:48;13.40;;;8.63;;
13959;SDS011;7052;51.050;3.716;2023-09-08T06:55:20;12.05;;;8.60;;
13959;SDS011;7052;51.050;3.716;2023-09-08T06:57:47;12.35;;;9.23;;
13959;SDS011;7052;51.050;3.716;2023-09-08T07:00:14;14.30;;;8.73;;
13959;SDS011;7052;51.050;3.716;2023-09-08T07:02:43;9.88;;;8.40;;
13959;SDS011;7052;51.050;3.716;2023-09-08T07:05:09;10.60;;;8.57;;
13959;SDS011;7052;51.050;3.716;2023-09-08T07:07:36;10.77;;;8.80;;
13959;SDS011;7052;51.050;3.716;2023-09-08T07:10:05;9.35;;;8.27;;
13959;SDS011;7052;51.050;3.716;2023-09-08T07:12:33;11.10;;;9.20;;
13959;SDS011;7052;51.050;3.716;2023-09-08T07:15:00;10.95;;;8.50;;
13959;SDS011;7052;51.050;3.716;2023-09-08T07:17:27;9.70;;;8.70;;
13959;SDS011;7052;51.050;3.716;2023-09-08T07:19:54;10.93;;;9.27;;
13959;SDS011;7052;51.050;3.716;2023-09-08T07:22:21;14.43;;;9.20;;
13959;SDS011;7052;51.050;3.716;2023-09-08T07:24:48;9.43;;;8.43;;
13959;SDS011;7052;51.050;3.716;2023-09-08T07:27:17;11.43;;;8.93;;
13959;SDS011;7052;51.050;3.716;2023-09-08T07:29:45;9.27;;;8.27;;
13959;SDS011;7052;51.050;3.716;2023-09-08T07:32:13;18.10;;;9.00;;
13959;SDS011;7052;51.050;3.716;2023-09-08T07:34:39;13.77;;;8.63;;
13959;SDS011;7052;51.050;3.716;2023-09-08T07:37:07;12.57;;;8.82;;
13959;SDS011;7052;51.050;3.716;2023-09-08T07:39:34;9.55;;;7.88;;
13959;SDS011;7052;51.050;3.716;2023-09-08T07:42:01;11.93;;;8.18;;
13959;SDS011;7052;51.050;3.716;2023-09-08T07:44:30;12.38;;;8.65;;
13959;SDS011;7052;51.050;3.716;2023-09-08T07:46:57;10.30;;;8.20;;
13959;SDS011;7052;51.050;3.716;2023-09-08T07:49:24;14.05;;;8.35;;
13959;SDS011;7052;51.050;3.716;2023-09-08T07:51:51;14.18;;;10.43;;
13959;SDS011;7052;51.050;3.716;2023-09-08T07:54:18;13.48;;;8.45;;
13959;SDS011;7052;51.050;3.716;2023-09-08T07:56:44;12.75;;;9.23;;
13959;SDS011;7052;51.050;3.716;2023-09-08T07:59:11;18.30;;;9.55;;
13959;SDS011;7052;51.050;3.716;2023-09-08T08:01:40;10.32;;;9.23;;
13959;SDS011;7052;51.050;3.716;2023-09-08T08:04:07;13.25;;;9.25;;
13959;SDS011;7052;51.050;3.716;2023-09-08T08:06:33;11.00;;;8.50;;
13959;SDS011;7052;51.050;3.716;2023-09-08T08:09:00;16.58;;;8.73;;
13959;SDS011;7052;51.050;3.716;2023-09-08T08:11:27;12.07;;;8.35;;
13959;SDS011;7052;51.050;3.716;2023-09-08T08:13:54;11.65;;;8.88;;
13959;SDS011;7052;51.050;3.716;2023-09-08T08:16:22;10.13;;;8.38;;
13959;SDS011;7052;51.050;3.716;2023-09-08T08:18:53;13.75;;;9.50;;
13959;SDS011;7052;51.050;3.716;2023-09-08T08:21:20;12.15;;;8.52;;
13959;SDS011;7052;51.050;3.716;2023-09-08T08:23:48;10.90;;;9.30;;
13959;SDS011;7052;51.050;3.716;2023-09-08T08:26:16;16.02;;;10.38;;
13959;SDS011;7052;51.050;3.716;2023-09-08T08:28:44;13.32;;;8.80;;
13959;SDS011;7052;51.050;3.716;2023-09-08T08:31:11;13.98;;;8.82;;
13959;SDS011;7052;51.050;3.716;2023-09-08T08:33:38;9.38;;;7.82;;
13959;SDS011;7052;51.050;3.716;2023-09-08T08:36:07;10.77;;;8.30;;
13959;SDS011;7052;51.050;3.716;2023-09-08T08:38:34;12.88;;;10.40;;
13959;SDS011;7052;51.050;3.716;2023-09-08T08:41:02;12.68;;;8.70;;
13959;SDS011;7052;51.050;3.716;2023-09-08T08:43:30;10.68;;;7.82;;
13959;SDS011;7052;51.050;3.716;2023-09-08T08:45:58;10.52;;;8.70;;
13959;SDS011;7052;51.050;3.716;2023-09-08T08:48:26;12.73;;;8.43;;
13959;SDS011;7052;51.050;3.716;2023-09-08T08:50:56;11.02;;;7.72;;
13959;SDS011;7052;51.050;3.716;2023-09-08T08:53:26;10.70;;;8.20;;
13959;SDS011;7052;51.050;3.716;2023-09-08T08:55:54;11.55;;;8.02;;
13959;SDS011;7052;51.050;3.716;2023-09-08T08:58:24;9.52;;;7.68;;
13959;SDS011;7052;51.050;3.716;2023-09-08T09:03:21;8.65;;;7.82;;
13959;SDS011;7052;51.050;3.716;2023-09-08T09:05:50;9.57;;;7.80;;
13959;SDS011;7052;51.050;3.716;2023-09-08T09:08:18;10.05;;;7.57;;
13959;SDS011;7052;51.050;3.716;2023-09-08T09:10:48;10.57;;;7.80;;
13959;SDS011;7052;51.050;3.716;2023-09-08T09:13:16;10.95;;;7.38;;
13959;SDS011;7052;51.050;3.716;2023-09-08T09:15:43;8.45;;;7.65;;
13959;SDS011;7052;51.050;3.716;2023-09-08T09:18:10;9.82;;;7.97;;
13959;SDS011;7052;51.050;3.716;2023-09-08T09:20:37;14.02;;;7.70;;
13959;SDS011;7052;51.050;3.716;2023-09-08T09:23:06;12.38;;;7.75;;
13959;SDS011;7052;51.050;3.716;2023-09-08T09:25:33;10.23;;;7.45;;
13959;SDS011;7052;51.050;3.716;2023-09-08T09:28:10;8.40;;;7.30;;
13959;SDS011;7052;51.050;3.716;2023-09-08T09:30:46;12.20;;;8.55;;
13959;SDS011;7052;51.050;3.716;2023-09-08T09:33:14;16.52;;;7.43;;
13959;SDS011;7052;51.050;3.716;2023-09-08T09:35:42;10.43;;;8.10;;
13959;SDS011;7052;51.050;3.716;2023-09-08T09:38:10;10.13;;;6.82;;
13959;SDS011;7052;51.050;3.716;2023-09-08T09:40:37;11.60;;;7.68;;
13959;SDS011;7052;51.050;3.716;2023-09-08T09:43:06;11.98;;;7.10;;
13959;SDS011;7052;51.050;3.716;2023-09-08T09:45:34;11.48;;;8.18;;
13959;SDS011;7052;51.050;3.716;2023-09-08T09:48:02;11.63;;;7.63;;
13959;SDS011;7052;51.050;3.716;2023-09-08T09:50:30;8.20;;;7.40;;
13959;SDS011;7052;51.050;3.716;2023-09-08T09:53:00;14.15;;;7.88;;
13959;SDS011;7052;51.050;3.716;2023-09-08T09:55:28;8.35;;;6.80;;
13959;SDS011;7052;51.050;3.716;2023-09-08T09:57:55;11.82;;;7.60;;
13959;SDS011;7052;51.050;3.716;2023-09-08T10:00:29;11.50;;;6.50;;
13959;SDS011;7052;51.050;3.716;2023-09-08T10:02:58;12.25;;;7.07;;
13959;SDS011;7052;51.050;3.716;2023-09-08T10:05:26;7.70;;;6.63;;
13959;SDS011;7052;51.050;3.716;2023-09-08T10:07:54;9.38;;;7.32;;
13959;SDS011;7052;51.050;3.716;2023-09-08T10:10:21;8.88;;;6.93;;
13959;SDS011;7052;51.050;3.716;2023-09-08T10:12:52;7.05;;;6.35;;
13959;SDS011;7052;51.050;3.716;2023-09-08T10:15:21;6.50;;;5.57;;
13959;SDS011;7052;51.050;3.716;2023-09-08T10:17:52;9.30;;;6.32;;
13959;SDS011;7052;51.050;3.716;2023-09-08T10:20:22;10.63;;;6.88;;
13959;SDS011;7052;51.050;3.716;2023-09-08T10:22:52;7.75;;;6.53;;
13959;SDS011;7052;51.050;3.716;2023-09-08T10:25:21;11.52;;;7.05;;
13959;SDS011;7052;51.050;3.716;2023-09-08T10:27:51;12.13;;;6.90;;
13959;SDS011;7052;51.050;3.716;2023-09-08T10:30:20;10.27;;;6.53;;
13959;SDS011;7052;51.050;3.716;2023-09-08T10:32:50;15.77;;;7.07;;
13959;SDS011;7052;51.050;3.716;2023-09-08T10:35:19;20.25;;;7.53;;
13959;SDS011;7052;51.050;3.716;2023-09-08T10:37:47;12.40;;;6.65;;
13959;SDS011;7052;51.050;3.716;2023-09-08T10:40:20;17.55;;;6.72;;
13959;SDS011;7052;51.050;3.716;2023-09-08T10:42:48;8.55;;;6.68;;
13959;SDS011;7052;51.050;3.716;2023-09-08T10:45:16;15.98;;;6.88;;
13959;SDS011;7052;51.050;3.716;2023-09-08T10:47:57;12.10;;;7.38;;
13959;SDS011;7052;51.050;3.716;2023-09-08T10:50:30;11.13;;;6.65;;
13959;SDS011;7052;51.050;3.716;2023-09-08T10:53:09;15.57;;;7.15;;
13959;SDS011;7052;51.050;3.716;2023-09-08T10:55:41;9.55;;;7.43;;
13959;SDS011;7052;51.050;3.716;2023-09-08T10:58:30;9.70;;;7.60;;
13959;SDS011;7052;51.050;3.716;2023-09-08T11:00:59;7.80;;;7.05;;
13959;SDS011;7052;51.050;3.716;2023-09-08T11:03:41;9.50;;;7.88;;
13959;SDS011;7052;51.050;3.716;2023-09-08T11:06:10;8.38;;;7.15;;
13959;SDS011;7052;51.050;3.716;2023-09-08T11:08:40;8.23;;;7.32;;
13959;SDS011;7052;51.050;3.716;2023-09-08T11:11:09;8.50;;;7.40;;
13959;SDS011;7052;51.050;3.716;2023-09-08T11:13:37;8.40;;;7.57;;
13959;SDS011;7052;51.050;3.716;2023-09-08T11:16:06;10.32;;;8.23;;
13959;SDS011;7052;51.050;3.716;2023-09-08T11:18:45;9.85;;;7.10;;
13959;SDS011;7052;51.050;3.716;2023-09-08T11:21:11;9.43;;;7.43;;
13959;SDS011;7052;51.050;3.716;2023-09-08T11:23:39;12.18;;;7.50;;
13959;SDS011;7052;51.050;3.716;2023-09-08T11:26:08;11.30;;;7.28;;
13959;SDS011;7052;51.050;3.716;2023-09-08T11:28:38;7.32;;;6.70;;
13959;SDS011;7052;51.050;3.716;2023-09-08T11:31:07;10.95;;;6.55;;
13959;SDS011;7052;51.050;3.716;2023-09-08T11:33:38;11.85;;;6.57;;
13959;SDS011;7052;51.050;3.716;2023-09-08T11:36:11;8.23;;;5.88;;
13959;SDS011;7052;51.050;3.716;2023-09-08T11:38:41;6.85;;;6.20;;
13959;SDS011;7052;51.050;3.716;2023-09-08T11:41:09;8.10;;;6.22;;
13959;SDS011;7052;51.050;3.716;2023-09-08T11:43:36;6.80;;;5.95;;
13959;SDS011;7052;51.050;3.716;2023-09-08T11:46:03;7.88;;;6.38;;
13959;SDS011;7052;51.050;3.716;2023-09-08T11:48:31;11.23;;;6.30;;
13959;SDS011;7052;51.050;3.716;2023-09-08T11:51:00;11.85;;;6.78;;
13959;SDS011;7052;51.050;3.716;2023-09-08T11:53:26;11.57;;;6.68;;
13959;SDS011;7052;51.050;3.716;2023-09-08T11:55:54;15.15;;;6.70;;
13959;SDS011;7052;51.050;3.716;2023-09-08T11:58:21;13.02;;;7.60;;
13959;SDS011;7052;51.050;3.716;2023-09-08T12:00:49;8.35;;;6.43;;
13959;SDS011;7052;51.050;3.716;2023-09-08T12:03:16;30.60;;;8.80;;
13959;SDS011;7052;51.050;3.716;2023-09-08T12:05:43;22.73;;;8.02;;
13959;SDS011;7052;51.050;3.716;2023-09-08T12:08:17;9.00;;;7.10;;
13959;SDS011;7052;51.050;3.716;2023-09-08T12:10:44;10.52;;;7.20;;
13959;SDS011;7052;51.050;3.716;2023-09-08T12:13:11;8.70;;;7.80;;
13959;SDS011;7052;51.050;3.716;2023-09-08T12:15:41;8.95;;;7.50;;
13959;SDS011;7052;51.050;3.716;2023-09-08T12:18:10;9.00;;;8.10;;
13959;SDS011;7052;51.050;3.716;2023-09-08T12:20:40;16.35;;;8.65;;
13959;SDS011;7052;51.050;3.716;2023-09-08T12:23:17;10.38;;;7.82;;
13959;SDS011;7052;51.050;3.716;2023-09-08T12:25:47;8.93;;;7.95;;
13959;SDS011;7052;51.050;3.716;2023-09-08T12:28:17;10.90;;;8.93;;
13959;SDS011;7052;51.050;3.716;2023-09-08T12:30:45;11.02;;;8.15;;
13959;SDS011;7052;51.050;3.716;2023-09-08T12:33:13;9.98;;;8.30;;
13959;SDS011;7052;51.050;3.716;2023-09-08T12:35:42;13.63;;;8.10;;
13959;SDS011;7052;51.050;3.716;2023-09-08T12:38:09;7.80;;;6.68;;
13959;SDS011;7052;51.050;3.716;2023-09-08T12:40:40;6.53;;;5.93;;
13959;SDS011;7052;51.050;3.716;2023-09-08T12:43:07;7.65;;;6.30;;
13959;SDS011;7052;51.050;3.716;2023-09-08T12:45:35;10.32;;;6.75;;
13959;SDS011;7052;51.050;3.716;2023-09-08T12:48:04;8.38;;;5.60;;
13959;SDS011;7052;51.050;3.716;2023-09-08T12:50:33;8.43;;;5.97;;
13959;SDS011;7052;51.050;3.716;2023-09-08T12:53:01;6.20;;;5.22;;
13959;SDS011;7052;51.050;3.716;2023-09-08T12:55:28;6.80;;;5.15;;
13959;SDS011;7052;51.050;3.716;2023-09-08T12:57:59;8.43;;;5.70;;
13959;SDS011;7052;51.050;3.716;2023-09-08T13:00:25;5.65;;;4.82;;
13959;SDS011;7052;51.050;3.716;2023-09-08T13:02:55;6.10;;;4.70;;
13959;SDS011;7052;51.050;3.716;2023-09-08T13:05:27;10.80;;;5.45;;
13959;SDS011;7052;51.050;3.716;2023-09-08T13:07:54;6.20;;;4.55;;
13959;SDS011;7052;51.050;3.716;2023-09-08T13:10:21;6.78;;;4.93;;
13959;SDS011;7052;51.050;3.716;2023-09-08T13:12:51;5.63;;;4.72;;
13959;SDS011;7052;51.050;3.716;2023-09-08T13:15:20;6.57;;;5.07;;
13959;SDS011;7052;51.050;3.716;2023-09-08T13:17:48;6.35;;;5.30;;
13959;SDS011;7052;51.050;3.716;2023-09-08T13:20:15;5.05;;;4.57;;
13959;SDS011;7052;51.050;3.716;2023-09-08T13:22:42;9.57;;;5.18;;
13959;SDS011;7052;51.050;3.716;2023-09-08T13:25:09;6.18;;;5.00;;
13959;SDS011;7052;51.050;3.716;2023-09-08T13:27:36;9.60;;;4.97;;
13959;SDS011;7052;51.050;3.716;2023-09-08T13:30:09;7.95;;;5.25;;
13959;SDS011;7052;51.050;3.716;2023-09-08T13:32:38;8.20;;;5.65;;
13959;SDS011;7052;51.050;3.716;2023-09-08T13:35:05;6.22;;;5.05;;
13959;SDS011;7052;51.050;3.716;2023-09-08T13:37:33;10.95;;;5.80;;
13959;SDS011;7052;51.050;3.716;2023-09-08T13:40:00;7.30;;;5.10;;
13959;SDS011;7052;51.050;3.716;2023-09-08T13:42:28;6.18;;;5.13;;
13959;SDS011;7052;51.050;3.716;2023-09-08T13:44:55;10.77;;;5.65;;
13959;SDS011;7052;51.050;3.716;2023-09-08T13:47:22;9.30;;;5.38;;
13959;SDS011;7052;51.050;3.716;2023-09-08T13:49:51;5.97;;;5.40;;
13959;SDS011;7052;51.050;3.716;2023-09-08T13:52:18;7.88;;;5.60;;
13959;SDS011;7052;51.050;3.716;2023-09-08T13:54:45;6.28;;;5.65;;
13959;SDS011;7052;51.050;3.716;2023-09-08T13:57:12;7.63;;;6.78;;
13959;SDS011;7052;51.050;3.716;2023-09-08T13:59:39;7.40;;;6.00;;
13959;SDS011;7052;51.050;3.716;2023-09-08T14:02:06;6.95;;;5.65;;
13959;SDS011;7052;51.050;3.716;2023-09-08T14:04:33;6.85;;;5.95;;
13959;SDS011;7052;51.050;3.716;2023-09-08T14:07:01;6.43;;;5.80;;
13959;SDS011;7052;51.050;3.716;2023-09-08T14:09:28;11.25;;;6.30;;
13959;SDS011;7052;51.050;3.716;2023-09-08T14:11:55;9.98;;;6.85;;
13959;SDS011;7052;51.050;3.716;2023-09-08T14:14:22;7.25;;;6.55;;
13959;SDS011;7052;51.050;3.716;2023-09-08T14:16:49;7.50;;;6.60;;
13959;SDS011;7052;51.050;3.716;2023-09-08T14:19:16;7.45;;;6.75;;
13959;SDS011;7052;51.050;3.716;2023-09-08T14:21:43;10.25;;;7.20;;
13959;SDS011;7052;51.050;3.716;2023-09-08T14:24:12;11.18;;;7.00;;
13959;SDS011;7052;51.050;3.716;2023-09-08T14:26:39;7.10;;;6.28;;
13959;SDS011;7052;51.050;3.716;2023-09-08T14:29:05;11.10;;;8.85;;
13959;SDS011;7052;51.050;3.716;2023-09-08T14:31:32;6.80;;;6.20;;
13959;SDS011;7052;51.050;3.716;2023-09-08T14:34:00;8.27;;;6.10;;
13959;SDS011;7052;51.050;3.716;2023-09-08T14:36:27;9.00;;;6.43;;
13959;SDS011;7052;51.050;3.716;2023-09-08T14:38:54;12.45;;;6.40;;
13959;SDS011;7052;51.050;3.716;2023-09-08T14:41:23;7.20;;;6.20;;
13959;SDS011;7052;51.050;3.716;2023-09-08T14:43:50;8.27;;;6.35;;
13959;SDS011;7052;51.050;3.716;2023-09-08T14:46:17;6.95;;;6.25;;
13959;SDS011;7052;51.050;3.716;2023-09-08T14:48:44;12.50;;;7.10;;
13959;SDS011;7052;51.050;3.716;2023-09-08T14:51:11;7.90;;;7.05;;
13959;SDS011;7052;51.050;3.716;2023-09-08T14:53:39;8.10;;;6.40;;
13959;SDS011;7052;51.050;3.716;2023-09-08T14:56:05;8.73;;;5.85;;